createdAt,value
2018-11-03T00:00:47.734Z,4.73
2018-11-03T00:03:52.134Z,4.79
2018-11-03T00:06:56.226Z,4.76
2018-11-03T00:10:00.309Z,4.75
2018-11-03T00:13:04.642Z,4.80
2018-11-03T00:16:09.076Z,4.68
2018-11-03T00:19:13.167Z,4.63
2018-11-03T00:22:17.266Z,4.63
2018-11-03T00:25:21.335Z,4.56
2018-11-03T00:28:25.430Z,4.58
2018-11-03T00:31:29.510Z,4.51
2018-11-03T00:34:34.165Z,4.50
2018-11-03T00:37:38.254Z,4.51
2018-11-03T00:40:42.361Z,4.52
2018-11-03T00:43:46.437Z,4.50
2018-11-03T00:46:50.530Z,4.45
2018-11-03T00:49:54.647Z,4.39
2018-11-03T00:52:58.705Z,4.38
2018-11-03T00:56:02.789Z,4.35
2018-11-03T00:59:06.875Z,4.28
2018-11-03T01:02:10.974Z,4.29
2018-11-03T01:05:15.133Z,4.26
2018-11-03T01:08:19.553Z,4.27
2018-11-03T01:11:23.637Z,4.26
2018-11-03T01:14:27.505Z,4.19
2018-11-03T01:17:31.593Z,4.19
2018-11-03T01:20:36.040Z,4.12
2018-11-03T01:23:40.188Z,4.08
2018-11-03T01:26:44.437Z,4.02
2018-11-03T01:29:48.518Z,3.97
2018-11-03T01:32:52.611Z,3.96
2018-11-03T01:35:56.698Z,3.95
2018-11-03T01:39:00.797Z,3.94
2018-11-03T01:42:05.222Z,3.94
2018-11-03T01:45:09.677Z,3.91
2018-11-03T01:48:14.093Z,3.86
2018-11-03T01:51:18.182Z,3.91
2018-11-03T01:54:22.367Z,3.90
2018-11-03T01:57:26.414Z,3.83
2018-11-03T02:00:30.850Z,3.75
2018-11-03T02:03:34.932Z,3.81
2018-11-03T02:06:39.019Z,3.83
2018-11-03T02:09:43.093Z,3.70
2018-11-03T02:12:47.201Z,3.76
2018-11-03T02:15:51.276Z,3.78
2018-11-03T02:18:55.357Z,3.74
2018-11-03T02:21:59.462Z,3.69
2018-11-03T02:25:04.110Z,3.64
2018-11-03T02:28:08.261Z,3.70
2018-11-03T02:31:12.346Z,3.66
2018-11-03T02:34:16.792Z,3.64
2018-11-03T02:37:20.880Z,3.62
2018-11-03T02:40:24.949Z,3.62
2018-11-03T02:43:29.046Z,3.65
2018-11-03T02:46:33.125Z,3.54
2018-11-03T02:49:37.233Z,3.59
2018-11-03T02:52:41.612Z,3.55
2018-11-03T02:55:45.691Z,3.52
2018-11-03T02:58:49.794Z,3.52
2018-11-03T03:01:54.208Z,3.54
2018-11-03T03:04:58.301Z,3.55
2018-11-03T03:08:02.233Z,3.58
2018-11-03T03:11:06.381Z,3.52
2018-11-03T03:14:10.806Z,3.50
2018-11-03T03:17:14.689Z,3.46
2018-11-03T03:20:19.106Z,3.47
2018-11-03T03:23:23.190Z,3.46
2018-11-03T03:26:27.272Z,3.48
2018-11-03T03:29:31.398Z,3.41
2018-11-03T03:32:35.413Z,3.40
2018-11-03T03:35:39.512Z,3.40
2018-11-03T03:38:43.589Z,3.32
2018-11-03T03:41:47.681Z,3.26
2018-11-03T03:44:51.753Z,3.27
2018-11-03T03:47:55.847Z,3.23
2018-11-03T03:50:59.931Z,3.29
2018-11-03T03:54:04.157Z,3.30
2018-11-03T03:57:08.314Z,3.31
2018-11-03T04:00:12.898Z,3.24
2018-11-03T04:03:16.774Z,3.28
2018-11-03T04:06:20.883Z,3.25
2018-11-03T04:09:24.957Z,3.22
2018-11-03T04:12:29.078Z,3.24
2018-11-03T04:15:33.161Z,3.12
2018-11-03T04:18:37.233Z,3.16
2018-11-03T04:21:41.325Z,3.13
2018-11-03T04:24:45.450Z,3.11
2018-11-03T04:27:49.528Z,3.08
2018-11-03T04:30:53.940Z,3.10
2018-11-03T04:33:58.177Z,3.08
2018-11-03T04:37:02.260Z,2.98
2018-11-03T04:40:07.942Z,2.97
2018-11-03T04:43:12.029Z,2.90
2018-11-03T04:46:16.100Z,2.94
2018-11-03T04:49:20.185Z,2.91
2018-11-03T04:52:24.279Z,2.82
2018-11-03T04:55:28.346Z,2.80
2018-11-03T04:58:32.767Z,2.79
2018-11-03T05:01:36.855Z,2.76
2018-11-03T05:04:40.930Z,2.69
2018-11-03T05:07:45.018Z,2.72
2018-11-03T05:10:49.099Z,2.66
2018-11-03T05:13:53.182Z,2.57
2018-11-03T05:16:57.265Z,2.63
2018-11-03T05:20:01.376Z,2.60
2018-11-03T05:23:05.749Z,2.56
2018-11-03T05:26:09.829Z,2.49
2018-11-03T05:29:13.902Z,2.46
2018-11-03T05:32:18.319Z,2.48
2018-11-03T05:35:22.401Z,2.38
2018-11-03T05:38:26.494Z,2.42
2018-11-03T05:41:30.705Z,2.39
2018-11-03T05:44:35.097Z,2.36
2018-11-03T05:47:39.179Z,2.30
2018-11-03T05:50:43.270Z,2.29
2018-11-03T05:53:47.673Z,2.21
2018-11-03T05:56:51.753Z,2.23
2018-11-03T05:59:55.835Z,2.21
2018-11-03T06:03:00.246Z,2.26
2018-11-03T06:06:04.324Z,2.16
2018-11-03T06:09:09.490Z,2.18
2018-11-03T06:12:13.577Z,2.10
2018-11-03T06:15:17.990Z,2.09
2018-11-03T06:18:22.080Z,2.06
2018-11-03T06:21:26.249Z,2.06
2018-11-03T06:24:30.325Z,2.03
2018-11-03T06:27:34.714Z,1.98
2018-11-03T06:30:38.590Z,1.92
2018-11-03T06:33:42.694Z,1.98
2018-11-03T06:36:46.909Z,1.96
2018-11-03T06:39:51.010Z,1.93
2018-11-03T06:42:55.096Z,1.86
2018-11-03T06:45:59.186Z,1.83
2018-11-03T06:49:08.565Z,1.89
2018-11-03T06:52:13.074Z,1.84
2018-11-03T06:55:17.051Z,1.90
2018-11-03T06:58:21.450Z,1.81
2018-11-03T07:01:25.538Z,1.81
2018-11-03T07:04:29.592Z,1.84
2018-11-03T07:07:33.678Z,1.75
2018-11-03T07:10:44.487Z,1.79
2018-11-03T07:13:48.574Z,1.75
2018-11-03T07:16:52.658Z,1.77
2018-11-03T07:19:56.541Z,1.73
2018-11-03T07:23:00.618Z,1.83
2018-11-03T07:26:04.598Z,1.79
2018-11-03T07:29:08.669Z,1.90
2018-11-03T07:32:12.791Z,1.93
2018-11-03T07:35:17.395Z,1.97
2018-11-03T07:38:21.485Z,2.08
2018-11-03T07:41:25.613Z,2.16
2018-11-03T07:44:29.635Z,2.17
2018-11-03T07:47:33.721Z,2.22
2018-11-03T07:50:37.596Z,2.27
2018-11-03T07:53:41.672Z,2.37
2018-11-03T07:56:46.078Z,2.48
2018-11-03T07:59:50.166Z,2.52
2018-11-03T08:02:54.275Z,2.60
2018-11-03T08:05:58.359Z,2.68
2018-11-03T08:09:02.998Z,2.75
2018-11-03T08:12:06.978Z,2.86
2018-11-03T08:15:11.653Z,3.03
2018-11-03T08:18:15.721Z,3.10
2018-11-03T08:21:19.794Z,3.17
2018-11-03T08:24:23.882Z,3.32
2018-11-03T08:27:27.958Z,3.37
2018-11-03T08:30:32.048Z,3.48
2018-11-03T08:33:35.946Z,3.57
2018-11-03T08:36:40.047Z,3.70
2018-11-03T08:39:44.269Z,3.81
2018-11-03T08:42:48.277Z,3.93
2018-11-03T08:45:52.352Z,4.02
2018-11-03T08:48:56.474Z,4.08
2018-11-03T08:52:00.510Z,4.18
2018-11-03T08:55:04.946Z,4.23
2018-11-03T08:58:08.996Z,4.30
2018-11-03T09:01:13.402Z,4.34
2018-11-03T09:04:17.487Z,4.40
2018-11-03T09:07:21.368Z,4.44
2018-11-03T09:10:25.785Z,4.50
2018-11-03T09:13:29.862Z,4.54
2018-11-03T09:16:33.926Z,4.57
2018-11-03T09:19:38.005Z,4.61
2018-11-03T09:22:42.200Z,4.66
2018-11-03T09:25:46.197Z,4.70
2018-11-03T09:28:50.284Z,4.75
2018-11-03T09:31:54.418Z,4.78
2018-11-03T09:34:58.454Z,4.82
2018-11-03T09:38:02.540Z,4.84
2018-11-03T09:41:06.617Z,4.87
2018-11-03T09:44:10.690Z,4.91
2018-11-03T09:47:14.855Z,4.95
2018-11-03T09:50:19.295Z,4.98
2018-11-03T09:53:23.356Z,5.03
2018-11-03T09:56:27.490Z,5.06
2018-11-03T09:59:31.502Z,5.11
2018-11-03T10:02:35.601Z,5.14
2018-11-03T10:05:39.670Z,5.17
2018-11-03T10:08:43.803Z,5.20
2018-11-03T10:11:47.869Z,5.25
2018-11-03T10:14:51.945Z,5.31
2018-11-03T10:17:56.345Z,5.35
2018-11-03T10:21:00.413Z,5.37
2018-11-03T10:24:05.525Z,5.43
2018-11-03T10:27:09.614Z,5.46
2018-11-03T10:30:14.717Z,5.50
2018-11-03T10:33:18.800Z,5.55
2018-11-03T10:36:23.213Z,5.59
2018-11-03T10:39:27.299Z,5.63
2018-11-03T10:42:31.712Z,5.68
2018-11-03T10:45:35.789Z,5.70
2018-11-03T10:48:40.286Z,5.76
2018-11-03T10:51:44.605Z,5.82
2018-11-03T10:54:48.694Z,5.86
2018-11-03T10:57:53.123Z,5.91
2018-11-03T11:01:02.504Z,5.95
2018-11-03T11:04:12.176Z,5.98
2018-11-03T11:07:22.081Z,6.01
2018-11-03T11:10:32.295Z,6.06
2018-11-03T11:13:37.533Z,6.10
2018-11-03T11:16:42.114Z,6.15
2018-11-03T11:19:46.143Z,6.16
2018-11-03T11:22:50.228Z,6.20
2018-11-03T11:25:54.102Z,6.22
2018-11-03T11:28:58.192Z,6.25
2018-11-03T11:32:02.612Z,6.31
2018-11-03T11:35:06.739Z,6.33
2018-11-03T11:38:11.509Z,6.37
2018-11-03T11:41:15.723Z,6.40
2018-11-03T11:44:19.637Z,6.43
2018-11-03T11:47:23.505Z,6.46
2018-11-03T11:50:27.433Z,6.48
2018-11-03T11:53:33.149Z,6.52
2018-11-03T11:56:37.263Z,6.54
2018-11-03T11:59:41.358Z,6.58
2018-11-03T12:02:45.518Z,6.60
2018-11-03T12:05:49.617Z,6.63
2018-11-03T12:08:53.714Z,6.65
2018-11-03T12:11:58.126Z,6.69
2018-11-03T12:15:02.218Z,6.74
2018-11-03T12:18:06.945Z,6.75
2018-11-03T12:21:11.352Z,6.78
2018-11-03T12:24:15.765Z,6.82
2018-11-03T12:27:20.203Z,6.84
2018-11-03T12:30:24.837Z,6.85
2018-11-03T12:33:29.286Z,6.89
2018-11-03T12:36:33.357Z,6.91
2018-11-03T12:39:37.440Z,6.94
2018-11-03T12:42:41.513Z,6.96
2018-11-03T12:45:45.623Z,6.98
2018-11-03T12:48:49.709Z,7.01
2018-11-03T12:51:53.878Z,7.05
2018-11-03T12:54:58.090Z,7.08
2018-11-03T12:58:02.189Z,7.08
2018-11-03T13:01:06.283Z,7.10
2018-11-03T13:04:10.444Z,7.12
2018-11-03T13:07:14.469Z,7.14
2018-11-03T13:10:18.581Z,7.16
2018-11-03T13:13:22.448Z,7.18
2018-11-03T13:16:26.350Z,7.20
2018-11-03T13:19:30.213Z,7.23
2018-11-03T13:22:34.113Z,7.25
2018-11-03T13:25:38.433Z,7.26
2018-11-03T13:28:42.316Z,7.28
2018-11-03T13:31:46.377Z,7.29
2018-11-03T13:34:50.389Z,7.31
2018-11-03T13:37:54.513Z,7.34
2018-11-03T13:40:58.443Z,7.34
2018-11-03T13:44:02.517Z,7.35
2018-11-03T13:47:07.358Z,7.37
2018-11-03T13:50:11.567Z,7.37
2018-11-03T13:53:15.493Z,7.38
2018-11-03T13:56:19.625Z,7.40
2018-11-03T13:59:23.522Z,7.40
2018-11-03T14:02:27.442Z,7.40
2018-11-03T14:05:31.340Z,7.41
2018-11-03T14:08:35.314Z,7.42
2018-11-03T14:11:39.653Z,7.42
2018-11-03T14:14:43.533Z,7.42
2018-11-03T14:17:47.427Z,7.43
2018-11-03T14:20:51.304Z,7.43
2018-11-03T14:23:55.189Z,7.43
2018-11-03T14:26:59.095Z,7.45
2018-11-03T14:30:03.247Z,7.43
2018-11-03T14:33:07.663Z,7.42
2018-11-03T14:36:11.634Z,7.42
2018-11-03T14:39:15.671Z,7.42
2018-11-03T14:42:19.766Z,7.43
2018-11-03T14:45:23.703Z,7.45
2018-11-03T14:48:27.997Z,7.44
2018-11-03T14:51:31.894Z,7.45
2018-11-03T14:54:35.779Z,7.44
2018-11-03T14:57:39.662Z,7.44
2018-11-03T15:00:43.571Z,7.44
2018-11-03T15:03:47.451Z,7.40
2018-11-03T15:06:51.342Z,7.38
2018-11-03T15:09:55.307Z,7.38
2018-11-03T15:12:59.556Z,7.38
2018-11-03T15:16:03.433Z,7.35
2018-11-03T15:19:07.472Z,7.35
2018-11-03T15:22:11.406Z,7.32
2018-11-03T15:25:15.451Z,7.29
2018-11-03T15:28:19.325Z,7.24
2018-11-03T15:31:23.205Z,7.24
2018-11-03T15:34:27.227Z,7.21
2018-11-03T15:37:31.281Z,7.18
2018-11-03T15:40:35.157Z,7.15
2018-11-03T15:43:39.129Z,7.13
2018-11-03T15:46:43.449Z,7.10
2018-11-03T15:49:47.351Z,7.07
2018-11-03T15:52:51.430Z,7.03
2018-11-03T15:55:55.293Z,6.96
2018-11-03T15:58:59.215Z,6.87
2018-11-03T16:02:03.445Z,6.84
2018-11-03T16:05:07.356Z,6.77
2018-11-03T16:08:11.778Z,6.67
2018-11-03T16:11:15.680Z,6.55
2018-11-03T16:14:19.545Z,6.47
2018-11-03T16:17:23.430Z,6.40
2018-11-03T16:20:27.327Z,6.33
2018-11-03T16:23:31.218Z,6.24
2018-11-03T16:26:35.424Z,6.19
2018-11-03T16:29:39.315Z,6.10
2018-11-03T16:32:44.026Z,6.03
2018-11-03T16:35:48.315Z,6.03
2018-11-03T16:38:52.527Z,5.94
2018-11-03T16:41:56.424Z,5.86
2018-11-03T16:45:00.321Z,5.84
2018-11-03T16:48:04.466Z,5.79
2018-11-03T16:51:08.678Z,5.63
2018-11-03T16:54:12.551Z,5.66
2018-11-03T16:57:16.436Z,5.61
2018-11-03T17:00:20.683Z,5.58
2018-11-03T17:03:24.585Z,5.43
2018-11-03T17:06:28.474Z,5.34
2018-11-03T17:09:32.398Z,5.35
2018-11-03T17:12:36.399Z,5.23
2018-11-03T17:15:40.401Z,5.13
2018-11-03T17:18:44.319Z,5.19
2018-11-03T17:21:48.685Z,5.05
2018-11-03T17:24:52.599Z,5.03
2018-11-03T17:27:56.979Z,4.95
2018-11-03T17:31:00.860Z,4.94
2018-11-03T17:34:05.300Z,4.86
2018-11-03T17:37:09.187Z,4.87
2018-11-03T17:40:13.524Z,4.86
2018-11-03T17:43:17.597Z,4.77
2018-11-03T17:46:21.472Z,4.79
2018-11-03T17:49:25.349Z,4.68
2018-11-03T17:52:29.246Z,4.71
2018-11-03T17:55:33.128Z,4.61
2018-11-03T17:58:37.002Z,4.59
2018-11-03T18:01:40.942Z,4.58
2018-11-03T18:04:45.311Z,4.50
2018-11-03T18:07:49.181Z,4.45
2018-11-03T18:10:53.105Z,4.44
2018-11-03T18:13:56.982Z,4.41
2018-11-03T18:17:00.867Z,4.36
2018-11-03T18:20:05.855Z,4.41
2018-11-03T18:23:09.733Z,4.31
2018-11-03T18:26:13.721Z,4.31
2018-11-03T18:29:17.743Z,4.21
2018-11-03T18:32:21.609Z,4.22
2018-11-03T18:35:25.691Z,4.09
2018-11-03T18:38:29.633Z,4.06
2018-11-03T18:41:33.538Z,4.09
2018-11-03T18:44:37.594Z,3.95
2018-11-03T18:47:41.481Z,3.96
2018-11-03T18:50:45.622Z,3.90
2018-11-03T18:53:49.522Z,3.89
2018-11-03T18:56:53.418Z,3.87
2018-11-03T18:59:57.291Z,3.84
2018-11-03T19:03:01.175Z,3.77
2018-11-03T19:06:05.728Z,3.74
2018-11-03T19:09:10.051Z,3.77
2018-11-03T19:12:14.423Z,3.64
2018-11-03T19:15:18.334Z,3.65
2018-11-03T19:18:22.214Z,3.72
2018-11-03T19:21:26.082Z,3.59
2018-11-03T19:24:30.160Z,3.58
2018-11-03T19:27:34.037Z,3.52
2018-11-03T19:30:38.010Z,3.53
2018-11-03T19:33:41.940Z,3.55
2018-11-03T19:36:45.986Z,3.49
2018-11-03T19:39:49.862Z,3.45
2018-11-03T19:42:53.749Z,3.43
2018-11-03T19:45:57.637Z,3.42
2018-11-03T19:49:01.515Z,3.37
2018-11-03T19:52:05.738Z,3.37
2018-11-03T19:55:09.950Z,3.25
2018-11-03T19:58:13.930Z,3.27
2018-11-03T20:01:17.821Z,3.23
2018-11-03T20:04:21.749Z,3.19
2018-11-03T20:07:25.971Z,3.07
2018-11-03T20:10:29.923Z,3.14
2018-11-03T20:13:33.796Z,3.05
2018-11-03T20:16:37.682Z,3.05
2018-11-03T20:19:41.566Z,3.05
2018-11-03T20:22:45.527Z,3.00
2018-11-03T20:25:49.748Z,3.04
2018-11-03T20:28:53.625Z,2.96
2018-11-03T20:31:57.568Z,2.97
2018-11-03T20:35:01.593Z,2.90
2018-11-03T20:38:06.245Z,2.83
2018-11-03T20:41:10.351Z,2.77
2018-11-03T20:44:14.264Z,2.73
2018-11-03T20:47:18.138Z,2.77
2018-11-03T20:50:22.051Z,2.65
2018-11-03T20:53:25.993Z,2.65
2018-11-03T20:56:29.868Z,2.68
2018-11-03T20:59:33.746Z,2.62
2018-11-03T21:02:37.625Z,2.60
2018-11-03T21:05:41.516Z,2.58
2018-11-03T21:08:45.390Z,2.54
2018-11-03T21:11:49.269Z,2.55
2018-11-03T21:14:53.518Z,2.48
2018-11-03T21:17:57.394Z,2.52
2018-11-03T21:21:01.286Z,2.44
2018-11-03T21:24:05.407Z,2.39
2018-11-03T21:27:10.539Z,2.32
2018-11-03T21:30:15.095Z,2.32
2018-11-03T21:33:19.457Z,2.38
2018-11-03T21:36:23.442Z,2.22
2018-11-03T21:39:27.314Z,2.29
2018-11-03T21:42:31.402Z,2.22
2018-11-03T21:45:35.362Z,2.17
2018-11-03T21:48:39.226Z,2.11
2018-11-03T21:51:43.308Z,2.18
2018-11-03T21:54:47.173Z,2.13
2018-11-03T21:57:51.071Z,2.01
2018-11-03T22:00:54.945Z,2.02
2018-11-03T22:04:05.154Z,2.03
2018-11-03T22:07:09.025Z,1.93
2018-11-03T22:10:12.907Z,2.00
2018-11-03T22:13:16.780Z,1.93
2018-11-03T22:16:20.658Z,1.83
2018-11-03T22:19:24.537Z,1.84
2018-11-03T22:22:28.749Z,1.81
2018-11-03T22:25:32.962Z,1.74
2018-11-03T22:28:36.958Z,1.77
2018-11-03T22:31:40.846Z,1.72
2018-11-03T22:34:44.921Z,1.73
2018-11-03T22:37:48.798Z,1.74
2018-11-03T22:40:52.687Z,1.73
2018-11-03T22:43:56.569Z,1.62
2018-11-03T22:47:00.797Z,1.61
2018-11-03T22:50:04.790Z,1.57
2018-11-03T22:53:08.989Z,1.60
2018-11-03T22:56:12.874Z,1.58
2018-11-03T22:59:16.970Z,1.55
2018-11-03T23:02:21.098Z,1.46
2018-11-03T23:05:25.305Z,1.40
2018-11-03T23:08:29.193Z,1.40
2018-11-03T23:11:33.076Z,1.32
2018-11-03T23:14:36.989Z,1.34
2018-11-03T23:17:41.057Z,1.38
2018-11-03T23:20:44.923Z,1.39
2018-11-03T23:23:48.811Z,1.38
2018-11-03T23:26:52.682Z,1.22
2018-11-03T23:29:56.704Z,1.18
2018-11-03T23:33:00.650Z,1.22
2018-11-03T23:36:04.913Z,1.22
2018-11-03T23:39:10.334Z,1.13
2018-11-03T23:42:14.214Z,1.10
2018-11-03T23:45:18.654Z,1.06
2018-11-03T23:48:22.711Z,1.09
2018-11-03T23:51:26.814Z,1.11
2018-11-03T23:54:30.709Z,1.14
2018-11-03T23:57:34.598Z,1.13
